Time;durP1;ratioP1;P1;durP2;ratioP2;P2;SDS_P1;SDS_P2;PMS_P1;PMS_P2;Temp;Humidity;BMP_temperature;BMP_pressure;BME280_temperature;BME280_humidity;BME280_pressure;Samples;Min_cycle;Max_cycle;Signal;HPM_P1;HPM_P2
2023/03/23 00:00:12;;;;;;;6.22;2.15;;;;;;;;;;5001860;28;20049;-81
2023/03/23 00:02:40;;;;;;;5.68;2.45;;;;;;;;;;5003627;28;20398;-82
2023/03/23 00:05:08;;;;;;;8.45;2.78;;;;;;;;;;4985297;28;20487;-81
2023/03/23 00:07:35;;;;;;;5.82;2.78;;;;;;;;;;4984108;28;20064;-82
2023/03/23 00:10:03;;;;;;;11.77;2.72;;;;;;;;;;4983622;28;20065;-81
2023/03/23 00:12:33;;;;;;;8.68;2.75;;;;;;;;;;4992942;28;20046;-81
2023/03/23 00:15:01;;;;;;;5.93;2.50;;;;;;;;;;5009474;28;20041;-81
2023/03/23 00:17:28;;;;;;;;;;;;;;;;;;4993944;28;20054;-81
2023/03/23 00:19:56;;;;;;;6.70;2.70;;;;;;;;;;4992205;28;19936;-81
2023/03/23 00:22:24;;;;;;;5.10;1.98;;;;;;;;;;4987641;28;20531;-81
2023/03/23 00:24:52;;;;;;;5.35;2.00;;;;;;;;;;5003196;28;20050;-81
2023/03/23 00:27:21;;;;;;;6.80;2.63;;;;;;;;;;5006721;28;20061;-82
2023/03/23 00:29:52;;;;;;;8.50;2.47;;;;;;;;;;5008093;28;20046;-82
2023/03/23 00:32:20;;;;;;;7.32;2.58;;;;;;;;;;4991384;28;20050;-82
2023/03/23 00:34:48;;;;;;;7.53;2.55;;;;;;;;;;4990635;28;20054;-81
2023/03/23 00:37:17;;;;;;;5.35;2.78;;;;;;;;;;4984786;28;20058;-82
2023/03/23 00:39:45;;;;;;;6.05;3.17;;;;;;;;;;4991748;28;20141;-81
2023/03/23 00:42:13;;;;;;;6.40;3.28;;;;;;;;;;4992177;28;20064;-81
2023/03/23 00:44:40;;;;;;;;;;;;;;;;;;5002504;28;20487;-82
2023/03/23 00:47:08;;;;;;;7.00;3.58;;;;;;;;;;5008267;28;19922;-81
2023/03/23 00:49:35;;;;;;;7.25;3.55;;;;;;;;;;4992068;28;20463;-81
2023/03/23 00:52:03;;;;;;;7.65;3.13;;;;;;;;;;4992773;28;20053;-82
2023/03/23 00:54:32;;;;;;;10.90;4.55;;;;;;;;;;4991998;28;20401;-81
2023/03/23 00:56:59;;;;;;;8.05;4.10;;;;;;;;;;4984158;28;20070;-81
2023/03/23 00:59:26;;;;;;;9.05;4.30;;;;;;;;;;5002156;28;20053;-81
2023/03/23 01:01:53;;;;;;;10.52;4.45;;;;;;;;;;4990756;28;20057;-82
2023/03/23 01:04:20;;;;;;;10.75;4.30;;;;;;;;;;4984414;28;20057;-81
2023/03/23 01:06:50;;;;;;;15.75;4.88;;;;;;;;;;4984406;28;20051;-81
2023/03/23 01:09:19;;;;;;;11.27;4.82;;;;;;;;;;4989124;28;20054;-82
2023/03/23 01:11:50;;;;;;;10.75;4.57;;;;;;;;;;4990841;28;20050;-81
2023/03/23 01:14:18;;;;;;;9.93;5.18;;;;;;;;;;5018759;28;20050;-81
2023/03/23 01:16:45;;;;;;;8.38;4.30;;;;;;;;;;5002061;28;20049;-81
2023/03/23 01:19:12;;;;;;;10.23;4.75;;;;;;;;;;4998608;28;20051;-82
2023/03/23 01:21:39;;;;;;;10.27;4.90;;;;;;;;;;4982396;28;20073;-81
2023/03/23 01:24:06;;;;;;;11.02;5.40;;;;;;;;;;4990839;28;20402;-81
2023/03/23 01:26:33;;;;;;;10.05;4.88;;;;;;;;;;4991143;28;20392;-82
2023/03/23 01:29:01;;;;;;;10.23;4.78;;;;;;;;;;4992616;28;20049;-81
2023/03/23 01:31:28;;;;;;;10.35;4.95;;;;;;;;;;5005181;28;20372;-82
2023/03/23 01:33:56;;;;;;;10.25;5.22;;;;;;;;;;5002136;28;20406;-81
2023/03/23 01:36:25;;;;;;;10.02;4.45;;;;;;;;;;4990400;28;20046;-81
2023/03/23 01:38:51;;;;;;;14.18;5.40;;;;;;;;;;4990837;28;20489;-82
2023/03/23 01:41:19;;;;;;;13.88;4.82;;;;;;;;;;4989124;28;20054;-82
2023/03/23 01:43:57;;;;;;;11.55;5.20;;;;;;;;;;4998900;28;20053;-82
2023/03/23 01:46:27;;;;;;;9.48;5.22;;;;;;;;;;4983789;28;20061;-82
2023/03/23 01:48:54;;;;;;;8.73;4.57;;;;;;;;;;5008656;28;20062;-82
2023/03/23 01:51:22;;;;;;;10.63;5.10;;;;;;;;;;4986290;28;20057;-82
2023/03/23 01:53:54;;;;;;;9.77;4.93;;;;;;;;;;4985820;28;20422;-82
2023/03/23 01:56:24;;;;;;;15.70;5.75;;;;;;;;;;4990350;28;20054;-82
2023/03/23 01:58:52;;;;;;;10.20;4.60;;;;;;;;;;4986965;28;20398;-82
2023/03/23 02:01:21;;;;;;;10.45;5.38;;;;;;;;;;4991007;28;20073;-82
2023/03/23 02:03:50;;;;;;;10.50;4.72;;;;;;;;;;4990128;28;20418;-83
2023/03/23 02:06:17;;;;;;;10.05;5.07;;;;;;;;;;5001169;28;20046;-83
2023/03/23 02:09:07;;;;;;;10.27;5.47;;;;;;;;;;4991302;28;20055;-82
2023/03/23 02:11:34;;;;;;;11.18;4.68;;;;;;;;;;4984057;28;20482;-82
2023/03/23 02:14:02;;;;;;;;;;;;;;;;;;4984609;28;20058;-82
2023/03/23 02:16:33;;;;;;;9.65;5.07;;;;;;;;;;4990589;28;19932;-82
2023/03/23 02:19:08;;;;;;;12.50;5.82;;;;;;;;;;5000410;28;20064;-82
2023/03/23 02:21:46;;;;;;;9.18;4.53;;;;;;;;;;5001016;28;20065;-80
2023/03/23 02:24:31;;;;;;;12.68;5.45;;;;;;;;;;5006417;28;20050;-80
2023/03/23 02:27:00;;;;;;;9.50;4.47;;;;;;;;;;5001636;28;20049;-81
2023/03/23 02:29:38;;;;;;;11.50;4.95;;;;;;;;;;4981566;28;20406;-81
2023/03/23 02:32:11;;;;;;;9.60;5.78;;;;;;;;;;5003607;28;20092;-81
2023/03/23 02:34:42;;;;;;;11.57;4.55;;;;;;;;;;4987104;28;20392;-81
2023/03/23 02:37:10;;;;;;;13.45;4.65;;;;;;;;;;5009971;28;20053;-81
2023/03/23 02:39:41;;;;;;;13.32;5.35;;;;;;;;;;5003551;28;20046;-81
2023/03/23 02:42:08;;;;;;;11.93;4.95;;;;;;;;;;4990738;28;20061;-81
2023/03/23 02:44:38;;;;;;;11.25;5.05;;;;;;;;;;4987831;28;20054;-81
2023/03/23 02:47:07;;;;;;;10.40;5.07;;;;;;;;;;5004186;28;20053;-80
2023/03/23 02:49:36;;;;;;;9.50;4.45;;;;;;;;;;5002830;28;20046;-81
2023/03/23 02:52:05;;;;;;;9.98;5.13;;;;;;;;;;5004027;28;20502;-80
2023/03/23 02:54:33;;;;;;;12.00;4.68;;;;;;;;;;4983523;28;20042;-81
2023/03/23 02:57:01;;;;;;;9.85;5.32;;;;;;;;;;5003674;28;20050;-81
2023/03/23 02:59:32;;;;;;;14.60;5.25;;;;;;;;;;4989357;28;20049;-81
2023/03/23 03:02:01;;;;;;;13.60;5.20;;;;;;;;;;5011044;28;20050;-80
2023/03/23 03:04:29;;;;;;;10.07;4.78;;;;;;;;;;4991626;28;20502;-81
2023/03/23 03:07:08;;;;;;;8.35;4.28;;;;;;;;;;5009848;28;20415;-81
2023/03/23 03:09:41;;;;;;;10.77;5.15;;;;;;;;;;5021500;28;20061;-81
2023/03/23 03:12:10;;;;;;;11.60;5.28;;;;;;;;;;4992754;28;20380;-80
2023/03/23 03:14:40;;;;;;;10.13;5.15;;;;;;;;;;5004831;28;20046;-80
2023/03/23 03:17:11;;;;;;;9.48;4.78;;;;;;;;;;4986920;28;20046;-80
2023/03/23 03:19:40;;;;;;;9.15;5.13;;;;;;;;;;5000770;28;20057;-80
2023/03/23 03:22:09;;;;;;;11.35;5.45;;;;;;;;;;4986770;28;20046;-81
2023/03/23 03:24:42;;;;;;;12.50;5.45;;;;;;;;;;4994703;28;20065;-81
2023/03/23 03:27:14;;;;;;;12.23;5.70;;;;;;;;;;4993689;28;20046;-81
2023/03/23 03:29:47;;;;;;;11.15;5.22;;;;;;;;;;4988431;28;20054;-81
2023/03/23 03:32:18;;;;;;;8.50;4.70;;;;;;;;;;4992851;28;20054;-81
2023/03/23 03:34:47;;;;;;;11.55;5.85;;;;;;;;;;5002668;28;20065;-82
2023/03/23 03:37:16;;;;;;;10.88;5.50;;;;;;;;;;5001626;28;20046;-81
2023/03/23 03:39:43;;;;;;;8.73;5.28;;;;;;;;;;5004058;28;20422;-81
2023/03/23 03:42:11;;;;;;;7.47;4.10;;;;;;;;;;4987374;28;20068;-81
2023/03/23 03:44:38;;;;;;;11.02;5.57;;;;;;;;;;4983809;28;20053;-81
2023/03/23 03:47:05;;;;;;;9.93;5.28;;;;;;;;;;4992808;28;20050;-81
2023/03/23 03:49:32;;;;;;;9.68;5.13;;;;;;;;;;4991759;28;20046;-81
2023/03/23 03:51:59;;;;;;;10.75;5.88;;;;;;;;;;4991690;28;20054;-81
2023/03/23 03:54:37;;;;;;;10.03;5.43;;;;;;;;;;4993525;28;20530;-81
2023/03/23 03:57:04;;;;;;;13.00;5.68;;;;;;;;;;4984771;28;20046;-81
2023/03/23 03:59:52;;;;;;;9.50;5.68;;;;;;;;;;4988070;28;20068;-81
2023/03/23 04:02:41;;;;;;;10.52;5.80;;;;;;;;;;5011185;28;20061;-81
2023/03/23 04:05:08;;;;;;;10.88;5.32;;;;;;;;;;4992161;28;20058;-82
2023/03/23 04:07:37;;;;;;;13.13;6.00;;;;;;;;;;4992897;28;20050;-81
2023/03/23 04:10:07;;;;;;;10.50;5.40;;;;;;;;;;4984576;28;20050;-82
2023/03/23 04:12:35;;;;;;;11.05;5.75;;;;;;;;;;4990556;28;20051;-81
2023/03/23 04:15:21;;;;;;;12.63;5.53;;;;;;;;;;5005813;28;20418;-83
2023/03/23 04:17:48;;;;;;;;;;;;;;;;;;4994805;28;20056;-81
2023/03/23 04:20:17;;;;;;;8.87;4.60;;;;;;;;;;4985074;28;20286;-81
2023/03/23 04:22:48;;;;;;;11.02;5.28;;;;;;;;;;4988231;28;20309;-81
2023/03/23 04:25:20;;;;;;;9.85;5.47;;;;;;;;;;4993046;28;20057;-81
2023/03/23 04:27:52;;;;;;;11.95;5.90;;;;;;;;;;4984274;28;20507;-81
2023/03/23 04:30:21;;;;;;;9.93;5.35;;;;;;;;;;4995061;28;20054;-81
2023/03/23 04:32:56;;;;;;;14.43;6.60;;;;;;;;;;5000766;28;20391;-81
2023/03/23 04:35:26;;;;;;;10.98;5.38;;;;;;;;;;4991330;28;20077;-82
2023/03/23 04:38:05;;;;;;;11.13;6.20;;;;;;;;;;4993104;28;20054;-81
2023/03/23 04:40:35;;;;;;;9.73;5.65;;;;;;;;;;4984621;28;20395;-81
2023/03/23 04:43:12;;;;;;;12.25;5.68;;;;;;;;;;5006404;28;20042;-81
2023/03/23 04:45:58;;;;;;;11.98;5.90;;;;;;;;;;5008463;28;20509;-81
2023/03/23 04:48:29;;;;;;;10.05;5.78;;;;;;;;;;4993576;28;20038;-81
2023/03/23 04:51:05;;;;;;;14.30;8.60;;;;;;;;;;4993304;28;20054;-81
2023/03/23 04:53:32;;;;;;;15.35;7.65;;;;;;;;;;4984264;28;20367;-81
2023/03/23 04:56:02;;;;;;;9.73;5.90;;;;;;;;;;4992383;28;20053;-81
2023/03/23 04:58:33;;;;;;;16.75;6.93;;;;;;;;;;5007790;28;20042;-82
2023/03/23 05:01:23;;;;;;;12.10;6.32;;;;;;;;;;4999994;28;20065;-81
2023/03/23 05:04:04;;;;;;;12.98;6.18;;;;;;;;;;4987562;28;20070;-81
2023/03/23 05:06:33;;;;;;;12.95;6.82;;;;;;;;;;5002036;28;20045;-81
2023/03/23 05:09:05;;;;;;;11.05;6.07;;;;;;;;;;4985636;28;20169;-82
2023/03/23 05:11:34;;;;;;;12.77;6.88;;;;;;;;;;4982398;28;20053;-82
2023/03/23 05:14:00;;;;;;;11.18;6.95;;;;;;;;;;4991908;28;20046;-81
2023/03/23 05:16:28;;;;;;;12.00;6.97;;;;;;;;;;4989435;28;20057;-82
2023/03/23 05:18:57;;;;;;;11.38;6.40;;;;;;;;;;4986701;28;20050;-82
2023/03/23 05:21:24;;;;;;;12.40;6.13;;;;;;;;;;4999948;28;20434;-82
2023/03/23 05:23:54;;;;;;;13.85;7.32;;;;;;;;;;5003783;28;20068;-82
2023/03/23 05:26:23;;;;;;;11.80;6.80;;;;;;;;;;4992609;28;20045;-82
2023/03/23 05:28:54;;;;;;;15.65;7.18;;;;;;;;;;4992875;28;20049;-82
2023/03/23 05:31:25;;;;;;;14.18;7.38;;;;;;;;;;4983021;28;20054;-82
2023/03/23 05:33:51;;;;;;;14.15;6.70;;;;;;;;;;4992383;28;20053;-82
2023/03/23 05:36:27;;;;;;;9.07;5.88;;;;;;;;;;4987312;28;20065;-82
2023/03/23 05:39:09;;;;;;;12.27;6.88;;;;;;;;;;4993535;28;20514;-82
2023/03/23 05:42:09;;;;;;;10.50;6.53;;;;;;;;;;4985972;28;20057;-81
2023/03/23 05:44:50;;;;;;;11.75;6.82;;;;;;;;;;4985919;28;20054;-81
2023/03/23 05:47:18;;;;;;;11.57;6.60;;;;;;;;;;4990679;28;20383;-81
2023/03/23 05:49:51;;;;;;;12.63;6.55;;;;;;;;;;4984767;28;20049;-82
2023/03/23 05:52:20;;;;;;;9.32;5.43;;;;;;;;;;4991898;28;20054;-82
2023/03/23 05:54:53;;;;;;;12.13;6.07;;;;;;;;;;5001075;28;20375;-82
2023/03/23 05:57:22;;;;;;;9.88;5.55;;;;;;;;;;4998197;28;20046;-81
2023/03/23 06:00:05;;;;;;;10.43;6.00;;;;;;;;;;4992623;28;20049;-81
2023/03/23 06:02:39;;;;;;;10.85;5.25;;;;;;;;;;5009603;28;20050;-81
2023/03/23 06:05:09;;;;;;;8.77;5.20;;;;;;;;;;4988245;28;20058;-81
2023/03/23 06:07:39;;;;;;;8.50;4.95;;;;;;;;;;5009648;28;20038;-81
2023/03/23 06:10:08;;;;;;;8.52;4.90;;;;;;;;;;5008712;28;20397;-81
2023/03/23 06:12:38;;;;;;;12.07;5.10;;;;;;;;;;5003955;28;20042;-82
2023/03/23 06:15:28;;;;;;;8.30;5.07;;;;;;;;;;5011317;28;20074;-82
2023/03/23 06:18:21;;;;;;;8.23;4.38;;;;;;;;;;5003730;28;20054;-82
2023/03/23 06:21:19;;;;;;;11.77;4.95;;;;;;;;;;4992055;28;20069;-82
2023/03/23 06:23:55;;;;;;;11.18;4.90;;;;;;;;;;4992537;28;20521;-82
2023/03/23 06:26:26;;;;;;;8.27;4.30;;;;;;;;;;4995781;28;20046;-82
2023/03/23 06:28:57;;;;;;;7.95;4.10;;;;;;;;;;4992155;28;20045;-82
2023/03/23 06:31:27;;;;;;;7.00;4.32;;;;;;;;;;4983446;28;20069;-81
2023/03/23 06:33:55;;;;;;;10.75;4.43;;;;;;;;;;4993371;28;20054;-81
2023/03/23 06:36:26;;;;;;;8.43;3.80;;;;;;;;;;5006969;28;20053;-81
2023/03/23 06:39:10;;;;;;;7.10;3.53;;;;;;;;;;4995185;28;20050;-81
2023/03/23 06:41:52;;;;;;;6.78;3.22;;;;;;;;;;5009463;28;20134;-81
2023/03/23 06:44:19;;;;;;;10.63;3.45;;;;;;;;;;4991212;28;20046;-82
2023/03/23 06:46:48;;;;;;;7.28;3.58;;;;;;;;;;5005576;28;20046;-81
2023/03/23 06:49:27;;;;;;;5.32;3.15;;;;;;;;;;4991748;28;20061;-82
2023/03/23 06:52:03;;;;;;;4.90;2.58;;;;;;;;;;5004522;28;20065;-82
2023/03/23 06:54:31;;;;;;;5.40;2.80;;;;;;;;;;4993998;28;20489;-81
2023/03/23 06:57:00;;;;;;;6.43;3.08;;;;;;;;;;4990538;28;20042;-81
2023/03/23 06:59:27;;;;;;;8.35;3.40;;;;;;;;;;4989705;28;20088;-82
2023/03/23 07:01:56;;;;;;;6.03;3.00;;;;;;;;;;4985045;28;20060;-81
2023/03/23 07:04:23;;;;;;;5.18;2.67;;;;;;;;;;4993796;28;20050;-82
2023/03/23 07:07:10;;;;;;;6.05;2.78;;;;;;;;;;4988696;28;20050;-81
2023/03/23 07:09:46;;;;;;;7.77;2.87;;;;;;;;;;4992717;28;20050;-82
2023/03/23 07:12:17;;;;;;;5.30;2.83;;;;;;;;;;4990674;28;20042;-84
2023/03/23 07:14:47;;;;;;;5.45;2.40;;;;;;;;;;5006367;28;20065;-81
2023/03/23 07:17:15;;;;;;;3.95;2.10;;;;;;;;;;4992510;28;20390;-81
2023/03/23 07:19:58;;;;;;;4.78;2.65;;;;;;;;;;5002305;28;20430;-82
2023/03/23 07:22:26;;;;;;;6.28;2.45;;;;;;;;;;5005582;28;20065;-81
2023/03/23 07:25:01;;;;;;;4.25;2.35;;;;;;;;;;4992664;28;20057;-81
2023/03/23 07:27:35;;;;;;;5.10;2.38;;;;;;;;;;4976277;28;20053;-82
2023/03/23 07:30:03;;;;;;;8.45;2.65;;;;;;;;;;4988764;28;20069;-82
2023/03/23 07:32:31;;;;;;;6.05;2.35;;;;;;;;;;4983956;28;20068;-81
2023/03/23 07:34:58;;;;;;;5.65;2.22;;;;;;;;;;4982264;28;20053;-82
2023/03/23 07:37:34;;;;;;;7.10;2.35;;;;;;;;;;4969870;28;20057;-83
2023/03/23 07:40:07;;;;;;;4.20;2.30;;;;;;;;;;4965642;28;20045;-81
2023/03/23 07:42:34;;;;;;;5.40;2.15;;;;;;;;;;4967180;28;20521;-82
2023/03/23 07:45:02;;;;;;;4.97;2.30;;;;;;;;;;4966799;28;20747;-83
2023/03/23 07:47:31;;;;;;;4.95;2.30;;;;;;;;;;4969333;28;20058;-81
2023/03/23 07:49:58;;;;;;;4.22;1.90;;;;;;;;;;4987011;28;20042;-82
2023/03/23 07:52:42;;;;;;;3.85;2.03;;;;;;;;;;4974906;28;20470;-81
2023/03/23 07:55:11;;;;;;;3.88;2.10;;;;;;;;;;4968004;28;20053;-81
2023/03/23 07:57:52;;;;;;;4.47;2.47;;;;;;;;;;4967066;28;20084;-81
2023/03/23 08:00:20;;;;;;;4.82;2.28;;;;;;;;;;4978128;28;20056;-80
2023/03/23 08:02:50;;;;;;;4.75;2.30;;;;;;;;;;4984884;28;20421;-81
2023/03/23 08:05:29;;;;;;;3.30;1.70;;;;;;;;;;4993866;28;20219;-82
2023/03/23 08:08:14;;;;;;;7.38;2.72;;;;;;;;;;4986955;28;20062;-81
2023/03/23 08:10:50;;;;;;;4.72;2.33;;;;;;;;;;4981733;28;20058;-82
2023/03/23 08:13:38;;;;;;;5.68;2.05;;;;;;;;;;4954624;28;21057;-82
2023/03/23 08:16:40;;;;;;;3.70;2.15;;;;;;;;;;4972769;28;20068;-82
2023/03/23 08:19:19;;;;;;;4.25;2.40;;;;;;;;;;4985501;28;20073;-82
2023/03/23 08:21:57;;;;;;;4.22;2.10;;;;;;;;;;4966286;28;20057;-81
2023/03/23 08:24:42;;;;;;;3.40;1.90;;;;;;;;;;4987097;28;20332;-81
2023/03/23 08:27:25;;;;;;;5.75;2.20;;;;;;;;;;4963540;28;20054;-81
2023/03/23 08:30:11;;;;;;;3.00;2.00;;;;;;;;;;4980466;28;20054;-81
2023/03/23 08:32:52;;;;;;;5.68;2.50;;;;;;;;;;4969849;28;20058;-81
2023/03/23 08:35:43;;;;;;;4.88;2.00;;;;;;;;;;4987755;28;20073;-81
2023/03/23 08:38:33;;;;;;;4.90;2.22;;;;;;;;;;4986776;28;20046;-81
2023/03/23 08:41:18;;;;;;;5.28;2.67;;;;;;;;;;4991558;28;20530;-81
2023/03/23 08:44:08;;;;;;;3.22;2.00;;;;;;;;;;4967018;28;20073;-80
2023/03/23 08:46:56;;;;;;;3.92;2.20;;;;;;;;;;4991177;28;20061;-80
2023/03/23 08:49:36;;;;;;;8.52;2.50;;;;;;;;;;4970504;28;20050;-81
2023/03/23 08:52:28;;;;;;;6.10;2.50;;;;;;;;;;4942255;28;20068;-82
2023/03/23 08:55:24;;;;;;;4.78;2.50;;;;;;;;;;4973977;28;20057;-81
2023/03/23 08:58:12;;;;;;;6.05;2.50;;;;;;;;;;4965335;28;20501;-82
2023/03/23 09:01:00;;;;;;;4.95;2.50;;;;;;;;;;4980120;28;20977;-81
2023/03/23 09:03:50;;;;;;;5.60;2.67;;;;;;;;;;4974096;28;21514;-80
2023/03/23 09:06:36;;;;;;;4.63;2.38;;;;;;;;;;4987825;28;20142;-80
2023/03/23 09:09:06;;;;;;;5.10;2.70;;;;;;;;;;4969825;28;20069;-80
2023/03/23 09:11:33;;;;;;;5.50;3.05;;;;;;;;;;4980018;28;20680;-80
2023/03/23 09:14:00;;;;;;;5.28;2.80;;;;;;;;;;4961422;28;20510;-81
2023/03/23 09:16:27;;;;;;;4.90;2.90;;;;;;;;;;4979711;28;20069;-80
2023/03/23 09:18:56;;;;;;;9.95;2.30;;;;;;;;;;4982822;28;20042;-82
2023/03/23 09:21:23;;;;;;;8.05;2.78;;;;;;;;;;4984240;28;21986;-81
2023/03/23 09:23:50;;;;;;;3.78;2.25;;;;;;;;;;4983015;28;20516;-81
2023/03/23 09:26:18;;;;;;;5.30;2.38;;;;;;;;;;4961914;28;20054;-81
2023/03/23 09:28:45;;;;;;;4.47;2.42;;;;;;;;;;4957590;28;20064;-80
2023/03/23 09:31:12;;;;;;;5.32;2.92;;;;;;;;;;4978173;28;20050;-80
2023/03/23 09:33:39;;;;;;;4.53;2.15;;;;;;;;;;4982914;28;20129;-80
2023/03/23 09:36:11;;;;;;;5.55;2.85;;;;;;;;;;4975049;28;20706;-79
2023/03/23 09:38:37;;;;;;;4.25;1.65;;;;;;;;;;4981191;28;20804;-80
2023/03/23 09:41:09;;;;;;;4.60;2.10;;;;;;;;;;4963282;28;20469;-80
2023/03/23 09:43:45;;;;;;;2.65;1.17;;;;;;;;;;4966792;28;20057;-81
2023/03/23 09:46:18;;;;;;;1.92;0.90;;;;;;;;;;4975307;28;20057;-80
2023/03/23 09:48:49;;;;;;;1.30;0.60;;;;;;;;;;4992070;28;20053;-80
2023/03/23 09:51:21;;;;;;;1.30;0.63;;;;;;;;;;4974086;28;20736;-83
2023/03/23 09:53:50;;;;;;;3.35;1.15;;;;;;;;;;4995662;28;20061;-82
2023/03/23 09:56:17;;;;;;;2.15;0.80;;;;;;;;;;4986685;28;20049;-80
2023/03/23 09:58:52;;;;;;;3.08;1.02;;;;;;;;;;4990726;28;20058;-81
2023/03/23 10:01:23;;;;;;;1.58;0.75;;;;;;;;;;4970691;28;20057;-82
2023/03/23 10:03:53;;;;;;;2.85;0.85;;;;;;;;;;4984652;28;20057;-82
2023/03/23 10:06:20;;;;;;;3.17;0.80;;;;;;;;;;4991906;28;20717;-81
2023/03/23 10:08:50;;;;;;;2.15;1.10;;;;;;;;;;4971975;28;20053;-82
2023/03/23 10:11:20;;;;;;;4.53;1.13;;;;;;;;;;4972883;28;21220;-82
2023/03/23 10:14:11;;;;;;;3.08;1.20;;;;;;;;;;4989587;28;20041;-82
2023/03/23 10:16:41;;;;;;;2.25;1.00;;;;;;;;;;4964623;28;20053;-81
2023/03/23 10:19:11;;;;;;;2.42;0.93;;;;;;;;;;4972218;28;20061;-82
2023/03/23 10:21:40;;;;;;;8.23;1.73;;;;;;;;;;4984176;28;20068;-80
2023/03/23 10:24:09;;;;;;;5.15;1.30;;;;;;;;;;4984233;28;20405;-81
2023/03/23 10:26:40;;;;;;;6.57;1.60;;;;;;;;;;4984421;28;20053;-81
2023/03/23 10:29:13;;;;;;;4.80;1.38;;;;;;;;;;4965880;28;20049;-81
2023/03/23 10:31:43;;;;;;;7.72;1.38;;;;;;;;;;4968052;28;20061;-82
2023/03/23 10:34:12;;;;;;;8.55;1.27;;;;;;;;;;4970154;28;20061;-81
2023/03/23 10:36:51;;;;;;;5.03;1.60;;;;;;;;;;4987998;28;20057;-83
2023/03/23 10:39:19;;;;;;;8.07;1.00;;;;;;;;;;4983492;28;20061;-81
2023/03/23 10:41:46;;;;;;;7.32;1.30;;;;;;;;;;4984039;28;20046;-81
2023/03/23 10:44:15;;;;;;;12.73;1.70;;;;;;;;;;4967485;28;21627;-84
2023/03/23 10:46:48;;;;;;;4.15;1.30;;;;;;;;;;4975776;28;20061;-81
2023/03/23 10:49:17;;;;;;;7.68;1.63;;;;;;;;;;4988242;28;20057;-81
2023/03/23 10:51:46;;;;;;;6.35;1.38;;;;;;;;;;4993695;28;20096;-83
2023/03/23 10:54:12;;;;;;;8.07;1.77;;;;;;;;;;4990969;28;20054;-82
2023/03/23 10:56:40;;;;;;;8.13;1.58;;;;;;;;;;4994165;28;20049;-82
2023/03/23 10:59:14;;;;;;;5.57;1.38;;;;;;;;;;4978517;28;20058;-82
2023/03/23 11:01:44;;;;;;;8.75;1.50;;;;;;;;;;4971494;28;20062;-81
2023/03/23 11:04:15;;;;;;;3.38;0.95;;;;;;;;;;4984896;28;20068;-81
2023/03/23 11:06:45;;;;;;;7.95;1.80;;;;;;;;;;4989648;28;21469;-82
2023/03/23 11:09:12;;;;;;;3.53;1.30;;;;;;;;;;4986654;28;20045;-82
2023/03/23 11:11:42;;;;;;;;;;;;;;;;;;4974336;28;20414;-81
2023/03/23 11:14:16;;;;;;;5.63;1.63;;;;;;;;;;4969240;28;20828;-82
2023/03/23 11:16:46;;;;;;;7.20;1.35;;;;;;;;;;4972370;28;20065;-82
2023/03/23 11:19:14;;;;;;;11.68;1.70;;;;;;;;;;4972430;28;20491;-82
2023/03/23 11:21:41;;;;;;;8.43;1.80;;;;;;;;;;4986411;28;20710;-82
2023/03/23 11:24:08;;;;;;;4.68;1.45;;;;;;;;;;4983618;28;20065;-81
2023/03/23 11:26:37;;;;;;;7.78;1.50;;;;;;;;;;4966446;28;20065;-81
2023/03/23 11:29:07;;;;;;;6.55;1.73;;;;;;;;;;4961706;28;20084;-82
2023/03/23 11:31:35;;;;;;;5.50;1.30;;;;;;;;;;4965373;28;20142;-81
2023/03/23 11:34:10;;;;;;;15.23;2.00;;;;;;;;;;4975449;28;20073;-82
2023/03/23 11:36:39;;;;;;;7.55;1.90;;;;;;;;;;4983341;28;20065;-81
2023/03/23 11:39:20;;;;;;;6.50;1.70;;;;;;;;;;4984646;28;20065;-83
2023/03/23 11:41:47;;;;;;;13.90;2.17;;;;;;;;;;4981973;28;20053;-83
2023/03/23 11:44:15;;;;;;;6.78;1.90;;;;;;;;;;4968375;28;20061;-81
2023/03/23 11:46:42;;;;;;;;;;;;;;;;;;4950214;28;20868;-82
2023/03/23 11:49:13;;;;;;;9.85;1.75;;;;;;;;;;4966340;28;20506;-82
2023/03/23 11:51:43;;;;;;;6.32;1.60;;;;;;;;;;4988635;28;20093;-83
2023/03/23 11:54:14;;;;;;;4.28;1.38;;;;;;;;;;4971099;28;20065;-81
2023/03/23 11:56:42;;;;;;;9.65;1.77;;;;;;;;;;4969651;28;20549;-83
2023/03/23 11:59:11;;;;;;;10.32;1.90;;;;;;;;;;4986655;28;20046;-81
2023/03/23 12:01:44;;;;;;;8.32;1.90;;;;;;;;;;4989062;28;20050;-84
2023/03/23 12:04:24;;;;;;;9.82;1.90;;;;;;;;;;4984348;28;20064;-82
2023/03/23 12:06:55;;;;;;;7.40;1.85;;;;;;;;;;4987031;28;20494;-83
2023/03/23 12:09:29;;;;;;;10.20;2.08;;;;;;;;;;4980851;28;20070;-82
2023/03/23 12:12:05;;;;;;;6.85;1.98;;;;;;;;;;4985949;28;20061;-83
2023/03/23 12:14:35;;;;;;;11.32;2.00;;;;;;;;;;4983376;28;20053;-82
2023/03/23 12:17:08;;;;;;;15.30;2.30;;;;;;;;;;4993227;28;20049;-82
2023/03/23 12:19:39;;;;;;;9.73;2.00;;;;;;;;;;4972670;28;20057;-83
2023/03/23 12:22:13;;;;;;;6.60;1.95;;;;;;;;;;4970992;28;20057;-81
2023/03/23 12:24:44;;;;;;;6.72;2.42;;;;;;;;;;4991158;28;20057;-81
2023/03/23 12:27:15;;;;;;;7.05;1.90;;;;;;;;;;4985586;28;20060;-82
2023/03/23 12:29:49;;;;;;;7.07;1.60;;;;;;;;;;4955607;28;20725;-83
2023/03/23 12:32:30;;;;;;;7.13;2.00;;;;;;;;;;4981523;28;20050;-81
2023/03/23 12:35:03;;;;;;;14.07;2.20;;;;;;;;;;4979984;28;20058;-81
2023/03/23 12:37:38;;;;;;;7.07;2.13;;;;;;;;;;4989553;28;20046;-81
2023/03/23 12:40:22;;;;;;;5.63;1.75;;;;;;;;;;4984766;28;20065;-83
2023/03/23 12:42:54;;;;;;;8.25;1.80;;;;;;;;;;4986408;28;20062;-83
2023/03/23 12:45:24;;;;;;;8.05;2.00;;;;;;;;;;4970298;28;20077;-82
2023/03/23 12:47:53;;;;;;;9.90;2.40;;;;;;;;;;4989077;28;20050;-81
2023/03/23 12:50:23;;;;;;;5.00;1.95;;;;;;;;;;4966121;28;20054;-82
2023/03/23 12:52:54;;;;;;;5.80;1.88;;;;;;;;;;4967139;28;20513;-82
2023/03/23 12:55:24;;;;;;;6.97;1.80;;;;;;;;;;4970925;28;20054;-81
2023/03/23 12:57:54;;;;;;;8.18;2.13;;;;;;;;;;5004692;28;20053;-80
2023/03/23 13:00:22;;;;;;;6.10;1.95;;;;;;;;;;4972317;28;20061;-81
2023/03/23 13:02:52;;;;;;;5.30;1.63;;;;;;;;;;4963834;28;20061;-81
2023/03/23 13:05:30;;;;;;;7.25;1.90;;;;;;;;;;4984227;28;20054;-81
2023/03/23 13:07:59;;;;;;;6.13;1.75;;;;;;;;;;4984449;28;20068;-82
2023/03/23 13:10:28;;;;;;;5.80;1.80;;;;;;;;;;4981809;28;20058;-82
2023/03/23 13:12:56;;;;;;;11.75;1.88;;;;;;;;;;4986949;28;20046;-81
2023/03/23 13:15:28;;;;;;;4.18;1.52;;;;;;;;;;4968137;28;20050;-81
2023/03/23 13:17:59;;;;;;;8.00;1.70;;;;;;;;;;5005060;28;20053;-82
2023/03/23 13:20:45;;;;;;;9.48;1.90;;;;;;;;;;4983268;28;20061;-81
2023/03/23 13:23:14;;;;;;;11.70;2.55;;;;;;;;;;4988607;28;20057;-82
2023/03/23 13:25:56;;;;;;;10.23;2.35;;;;;;;;;;4976052;28;20065;-82
2023/03/23 13:28:26;;;;;;;7.60;1.75;;;;;;;;;;4958222;28;20069;-80
2023/03/23 13:31:01;;;;;;;13.80;2.28;;;;;;;;;;4984058;28;20046;-82
2023/03/23 13:33:30;;;;;;;7.10;2.13;;;;;;;;;;4974894;28;20560;-82
2023/03/23 13:36:05;;;;;;;8.10;2.15;;;;;;;;;;4962454;28;20057;-82
2023/03/23 13:38:32;;;;;;;3.80;2.20;;;;;;;;;;4981208;28;20953;-81
2023/03/23 13:41:06;;;;;;;13.73;3.05;;;;;;;;;;4985661;28;20050;-81
2023/03/23 13:43:34;;;;;;;8.93;2.22;;;;;;;;;;4983788;28;20061;-82
2023/03/23 13:46:09;;;;;;;7.28;1.98;;;;;;;;;;4985130;28;20498;-82
2023/03/23 13:48:46;;;;;;;5.63;2.20;;;;;;;;;;4985888;28;20054;-81
2023/03/23 13:51:33;;;;;;;6.03;1.92;;;;;;;;;;4979260;28;20053;-81
2023/03/23 13:54:07;;;;;;;4.55;1.77;;;;;;;;;;4962920;28;20060;-81
2023/03/23 13:56:37;;;;;;;8.77;2.03;;;;;;;;;;4985299;28;20054;-81
2023/03/23 13:59:08;;;;;;;5.40;2.05;;;;;;;;;;4967380;28;20706;-81
2023/03/23 14:01:36;;;;;;;6.57;2.67;;;;;;;;;;4969379;28;20054;-82
2023/03/23 14:04:05;;;;;;;6.28;1.85;;;;;;;;;;4984921;28;20065;-82
2023/03/23 14:06:35;;;;;;;8.00;2.53;;;;;;;;;;4982635;28;20525;-81
2023/03/23 14:09:09;;;;;;;6.15;1.60;;;;;;;;;;4989551;28;20545;-81
2023/03/23 14:11:45;;;;;;;8.75;2.60;;;;;;;;;;4981575;28;21352;-80
2023/03/23 14:14:16;;;;;;;9.15;2.20;;;;;;;;;;4989044;28;20061;-81
2023/03/23 14:16:44;;;;;;;7.40;2.00;;;;;;;;;;4966685;28;20088;-79
2023/03/23 14:19:15;;;;;;;4.20;1.58;;;;;;;;;;4990972;28;20050;-81
2023/03/23 14:21:51;;;;;;;11.23;2.13;;;;;;;;;;4967089;28;20816;-79
2023/03/23 14:24:22;;;;;;;7.80;1.90;;;;;;;;;;4976739;28;20073;-82
2023/03/23 14:26:52;;;;;;;5.47;1.45;;;;;;;;;;4968183;28;20058;-81
2023/03/23 14:29:19;;;;;;;3.63;1.80;;;;;;;;;;4969193;28;20069;-80
2023/03/23 14:31:49;;;;;;;4.93;1.73;;;;;;;;;;4987113;28;20053;-80
2023/03/23 14:34:18;;;;;;;5.15;2.00;;;;;;;;;;5000988;28;20049;-80
2023/03/23 14:36:46;;;;;;;5.03;1.60;;;;;;;;;;4983442;28;20050;-81
2023/03/23 14:39:17;;;;;;;2.67;1.60;;;;;;;;;;4967536;28;20058;-80
2023/03/23 14:41:44;;;;;;;2.60;1.40;;;;;;;;;;4984178;28;20596;-80
2023/03/23 14:44:14;;;;;;;5.45;1.80;;;;;;;;;;4984856;28;20561;-81
2023/03/23 14:46:42;;;;;;;2.30;1.20;;;;;;;;;;4984067;28;20049;-80
2023/03/23 14:49:13;;;;;;;4.40;1.40;;;;;;;;;;4983310;28;20614;-80
2023/03/23 14:51:47;;;;;;;3.80;1.60;;;;;;;;;;4966947;28;20054;-81
2023/03/23 14:54:15;;;;;;;1.15;0.80;;;;;;;;;;4990788;28;20058;-81
2023/03/23 14:56:43;;;;;;;0.95;0.52;;;;;;;;;;4966255;28;20073;-81
2023/03/23 14:59:10;;;;;;;;;;;;;;;;;;4962544;28;20068;-81
2023/03/23 15:01:37;;;;;;;1.75;0.82;;;;;;;;;;4966144;28;19929;-82
2023/03/23 15:04:05;;;;;;;;;;;;;;;;;;4975528;28;20057;-79
2023/03/23 15:06:31;;;;;;;;;;;;;;;;;;4990877;28;19929;-80
2023/03/23 15:09:00;;;;;;;1.58;0.80;;;;;;;;;;4967296;28;19951;-80